西安 の空港の天気 - METARとTAF

西安咸陽国際空港 ( ZLXY / XIY ) - 中国 陝西省西安市
飛行場実況気象(Metar)
観測時間04/21 08:00 CST (04/21 00:00 UTC)
風向・風速南西 2m/s
視程800m
天気現象
なし
気温15℃
湿度100%
気圧1008hPa
METARZLXY 210000Z 23002MPS 0800 R23R/1000D R23L/1100N FG NSC 15/15 Q1008 BECMG TL0100 1500 BR
過去の天気等 Google飛行場航空写真 Wunderground天気予報

過去48時間のMETAR

飛行場予報(TAF)
発表時間: 4/21 03:23 CST (4/20 19:23 UTC)
予報対象時間: 21日8時 CST ~ 22日8時 CST
風向・風速西南西 3m/s
視程1,200m
天気現象もや
なし
21日9時 CST ~ 21日10時 CST に徐々に
視程3,000m
21日8時 CST ~ 21日9時 CST に一時的に
視程500m
天気現象
TAF ZLXY 201923Z 2100/2124 24003MPS 1200 BR NSC TX28/2108Z TN12/2122Z
BECMG 2101/2102 3000
TEMPO 2100/2101 0500 FG